Time;durP1;ratioP1;P1;durP2;ratioP2;P2;SDS_P1;SDS_P2;PMS_P1;PMS_P2;Temp;Humidity;BMP_temperature;BMP_pressure;BME280_temperature;BME280_humidity;BME280_pressure;Samples;Min_cycle;Max_cycle;Signal;HPM_P1;HPM_P2
2023/12/02 00:00:37;;;;;;;41.30;22.57;;;;;;;4.61;100.00;100536.34;2088186;28;20176;-65
2023/12/02 00:01:38;;;;;;;39.80;21.93;;;;;;;4.35;100.00;100499.13;2096133;28;20193;-65
2023/12/02 00:02:38;;;;;;;38.80;20.13;;;;;;;4.14;100.00;100460.75;2089634;28;20569;-65
2023/12/02 00:03:39;;;;;;;46.17;22.77;;;;;;;4.63;100.00;100539.47;2093705;28;20195;-65
2023/12/02 00:04:39;;;;;;;43.03;22.70;;;;;;;4.60;100.00;100546.53;2096322;28;20207;-65
2023/12/02 00:05:40;;;;;;;36.37;19.03;;;;;;;4.66;100.00;100544.19;2096725;28;20208;-65
2023/12/02 00:06:40;;;;;;;32.30;17.93;;;;;;;4.47;100.00;100511.66;2095527;28;20168;-65
2023/12/02 00:07:41;;;;;;;39.30;21.80;;;;;;;4.40;100.00;100493.25;2088732;28;20632;-65
2023/12/02 00:08:41;;;;;;;41.17;21.30;;;;;;;4.80;100.00;100544.16;2096643;28;20183;-65
2023/12/02 00:09:41;;;;;;;38.20;20.43;;;;;;;4.25;100.00;100441.56;2089784;28;20184;-65
2023/12/02 00:10:42;;;;;;;36.07;20.47;;;;;;;4.59;100.00;100505.75;2088297;28;20724;-65
2023/12/02 00:11:42;;;;;;;42.53;20.77;;;;;;;4.12;100.00;100421.97;2088362;28;20180;-65
2023/12/02 00:12:43;;;;;;;33.30;20.03;;;;;;;4.56;100.00;100490.09;2091640;28;20276;-65
2023/12/02 00:13:43;;;;;;;37.00;21.97;;;;;;;4.71;100.00;100503.38;2094700;28;20560;-65
2023/12/02 00:14:44;;;;;;;38.47;22.73;;;;;;;4.78;100.00;100527.31;2088383;28;20169;-65
2023/12/02 00:15:44;;;;;;;41.80;22.93;;;;;;;4.76;100.00;100538.66;2097070;28;20183;-65
2023/12/02 00:16:45;;;;;;;37.67;21.50;;;;;;;3.97;100.00;100425.91;2088913;28;20222;-65
2023/12/02 00:17:45;;;;;;;35.23;20.97;;;;;;;4.74;100.00;100557.50;2094433;28;20264;-65
2023/12/02 00:18:46;;;;;;;35.53;21.40;;;;;;;4.60;100.00;100538.31;2091801;28;20180;-65
2023/12/02 00:19:46;;;;;;;40.00;21.63;;;;;;;4.10;100.00;100481.13;2091916;28;20682;-65
2023/12/02 00:20:47;;;;;;;41.80;23.50;;;;;;;4.27;100.00;100516.00;2093331;28;20255;-65
2023/12/02 00:21:48;;;;;;;40.83;22.77;;;;;;;3.74;100.00;100471.31;2088810;28;20219;-65
2023/12/02 00:22:49;;;;;;;37.53;21.27;;;;;;;4.01;100.00;100538.31;2097813;28;20171;-65
2023/12/02 00:23:49;;;;;;;34.33;21.13;;;;;;;3.96;100.00;100558.66;2098286;28;20195;-65
2023/12/02 00:24:50;;;;;;;39.57;20.50;;;;;;;3.82;100.00;100564.13;2090724;28;20236;-67
2023/12/02 00:25:51;;;;;;;38.67;20.30;;;;;;;3.75;100.00;100572.31;2089851;28;20321;-66
2023/12/02 00:26:51;;;;;;;41.60;24.20;;;;;;;3.82;100.00;100544.94;2094132;28;20282;-67
2023/12/02 00:27:52;;;;;;;31.27;18.33;;;;;;;3.88;100.00;100537.09;2101372;28;20203;-65
2023/12/02 00:28:52;;;;;;;31.43;20.13;;;;;;;3.88;100.00;100537.91;2102833;28;20179;-65
2023/12/02 00:29:53;;;;;;;49.23;27.93;;;;;;;3.89;100.00;100544.16;2090927;28;20175;-65
2023/12/02 00:30:53;;;;;;;38.47;22.80;;;;;;;3.65;100.00;100509.28;2106520;28;20197;-65
2023/12/02 00:31:54;;;;;;;33.53;17.87;;;;;;;3.94;100.00;100550.03;2090848;28;20207;-66
2023/12/02 00:32:54;;;;;;;39.57;23.17;;;;;;;3.44;100.00;100490.03;2096326;28;20190;-66
2023/12/02 00:33:57;;;;;;;37.20;22.80;;;;;;;3.98;100.00;100569.25;2098005;28;20207;-65
2023/12/02 00:34:57;;;;;;;28.95;17.13;;;;;;;3.97;100.00;100563.00;2101673;28;20198;-65
2023/12/02 00:35:58;;;;;;;29.43;16.57;;;;;;;3.53;100.00;100483.00;2100970;28;20191;-65
2023/12/02 00:36:58;;;;;;;28.90;18.10;;;;;;;4.02;100.00;100548.09;2091284;28;20184;-65
2023/12/02 00:37:59;;;;;;;36.50;20.97;;;;;;;4.09;100.00;100537.94;2098099;28;20555;-65
2023/12/02 00:38:59;;;;;;;37.77;23.17;;;;;;;3.71;100.00;100483.06;2098327;28;20203;-66
2023/12/02 00:40:00;;;;;;;35.57;20.97;;;;;;;4.14;100.00;100537.53;2102788;28;20264;-65
2023/12/02 00:41:01;;;;;;;36.23;22.53;;;;;;;4.07;100.00;100512.06;2091015;28;20827;-66
2023/12/02 00:42:02;;;;;;;40.03;24.40;;;;;;;3.84;100.00;100482.28;2094490;28;20448;-65
2023/12/02 00:43:02;;;;;;;44.77;25.30;;;;;;;4.22;100.00;100550.09;2098008;28;20180;-65
2023/12/02 00:44:03;;;;;;;37.37;23.13;;;;;;;4.13;100.00;100549.69;2095010;28;20258;-65
2023/12/02 00:45:04;;;;;;;47.03;28.47;;;;;;;4.04;100.00;100518.31;2090446;28;20183;-65
2023/12/02 00:46:05;;;;;;;38.83;21.70;;;;;;;3.85;100.00;100505.00;2097516;28;20180;-65
2023/12/02 00:47:06;;;;;;;35.17;22.13;;;;;;;4.21;100.00;100566.94;2098272;28;20253;-66
2023/12/02 00:48:06;;;;;;;37.10;21.50;;;;;;;4.23;100.00;100542.63;2097797;28;20285;-65
2023/12/02 00:49:07;;;;;;;43.47;25.07;;;;;;;4.21;100.00;100545.75;2098057;28;20198;-65
2023/12/02 00:50:08;;;;;;;25.97;14.50;;;;;;;3.93;100.00;100495.59;2097972;28;20187;-65
2023/12/02 00:51:08;;;;;;;27.47;16.13;;;;;;;3.92;100.00;100477.59;2097523;28;20709;-65
2023/12/02 00:52:09;;;;;;;37.97;21.73;;;;;;;3.94;100.00;100473.28;2098055;28;20263;-65
2023/12/02 00:53:09;;;;;;;37.40;21.57;;;;;;;4.37;100.00;100537.16;2098567;28;20185;-65
2023/12/02 00:54:10;;;;;;;26.47;15.10;;;;;;;4.20;100.00;100529.72;2105854;28;20203;-65
2023/12/02 00:55:10;;;;;;;26.37;15.90;;;;;;;4.03;100.00;100514.00;2090910;28;20208;-65
2023/12/02 00:56:11;;;;;;;24.33;14.77;;;;;;;4.11;100.00;100521.09;2101891;28;20191;-65
2023/12/02 00:57:11;;;;;;;23.17;14.27;;;;;;;4.12;100.00;100545.38;2095413;28;20199;-65
2023/12/02 00:58:12;;;;;;;21.23;12.57;;;;;;;3.89;100.00;100503.03;2089776;28;20199;-65
2023/12/02 00:59:12;;;;;;;29.93;18.37;;;;;;;3.71;100.00;100459.19;2089946;28;20559;-65
2023/12/02 01:00:13;;;;;;;41.50;22.60;;;;;;;4.20;100.00;100543.44;2090362;28;20178;-65
2023/12/02 01:01:14;;;;;;;36.83;22.23;;;;;;;3.62;100.00;100441.53;2097365;28;20182;-65
2023/12/02 01:02:14;;;;;;;30.53;19.80;;;;;;;4.28;100.00;100523.84;2089869;28;20176;-65
2023/12/02 01:03:15;;;;;;;36.37;21.50;;;;;;;3.78;100.00;100458.38;2089611;28;20203;-65
2023/12/02 01:04:15;;;;;;;34.40;20.57;;;;;;;4.29;100.00;100528.13;2094753;28;20184;-65
2023/12/02 01:05:16;;;;;;;36.70;20.63;;;;;;;3.51;100.00;100411.41;2097925;28;20192;-65
2023/12/02 01:06:16;;;;;;;33.77;18.53;;;;;;;4.32;100.00;100518.34;2094738;28;20599;-65
2023/12/02 01:07:17;;;;;;;25.67;16.40;;;;;;;3.45;100.00;100382.81;2093612;28;20653;-65
2023/12/02 01:08:17;;;;;;;34.90;21.43;;;;;;;4.34;100.00;100530.50;2104884;28;20175;-65
2023/12/02 01:09:18;;;;;;;35.00;21.20;;;;;;;4.37;100.00;100526.19;2089823;28;20200;-65
2023/12/02 01:10:18;;;;;;;38.57;20.97;;;;;;;4.39;100.00;100515.59;2105017;28;20587;-65
2023/12/02 01:11:19;;;;;;;20.07;11.23;;;;;;;4.33;100.00;100511.66;2093043;28;20188;-65
2023/12/02 01:12:19;;;;;;;29.37;19.00;;;;;;;4.30;100.00;100499.53;2099613;28;20182;-65
2023/12/02 01:13:20;;;;;;;37.43;20.10;;;;;;;4.45;100.00;100523.03;2098573;28;20318;-65
2023/12/02 01:14:20;;;;;;;37.07;22.73;;;;;;;4.45;100.00;100525.78;2090949;28;20193;-65
2023/12/02 01:15:21;;;;;;;33.27;20.00;;;;;;;3.99;100.00;100455.66;2096480;28;20183;-65
2023/12/02 01:16:21;;;;;;;31.67;18.37;;;;;;;4.32;100.00;100518.34;2097391;28;20190;-65
2023/12/02 01:17:22;;;;;;;25.40;15.60;;;;;;;4.18;100.00;100513.66;2105914;28;20191;-65
2023/12/02 01:18:22;;;;;;;22.33;13.37;;;;;;;3.77;100.00;100473.25;2090902;28;20266;-65
2023/12/02 01:19:23;;;;;;;32.27;16.77;;;;;;;4.06;100.00;100524.97;2095269;28;20187;-65
2023/12/02 01:20:23;;;;;;;28.90;16.30;;;;;;;4.14;100.00;100534.78;2093233;28;20294;-65
2023/12/02 01:21:24;;;;;;;30.67;17.77;;;;;;;4.16;100.00;100537.16;2092196;28;20187;-65
2023/12/02 01:22:24;;;;;;;30.03;16.73;;;;;;;4.26;100.00;100544.59;2095131;28;20580;-65
2023/12/02 01:23:25;;;;;;;26.60;16.67;;;;;;;4.24;100.00;100531.28;2089984;28;20557;-65
2023/12/02 01:24:25;;;;;;;27.17;16.70;;;;;;;3.97;100.00;100485.41;2097392;28;20789;-65
2023/12/02 01:25:26;;;;;;;28.30;16.27;;;;;;;4.23;100.00;100520.69;2090325;28;20189;-65
2023/12/02 01:26:26;;;;;;;24.07;15.03;;;;;;;4.29;100.00;100519.91;2095721;28;20565;-65
2023/12/02 01:27:27;;;;;;;31.20;17.27;;;;;;;3.68;100.00;100413.38;2097355;28;20231;-65
2023/12/02 01:28:27;;;;;;;28.80;17.10;;;;;;;4.19;100.00;100512.47;2101206;28;20683;-65
2023/12/02 01:29:28;;;;;;;25.20;14.90;;;;;;;3.20;100.00;100362.06;2100900;28;20231;-65
2023/12/02 01:30:29;;;;;;;26.13;14.27;;;;;;;3.85;100.00;100461.91;2091800;28;20597;-65
2023/12/02 01:31:29;;;;;;;25.20;15.07;;;;;;;4.16;100.00;100502.25;2106035;28;20648;-65
2023/12/02 01:32:30;;;;;;;28.33;14.57;;;;;;;4.17;100.00;100494.84;2097908;28;20259;-65
2023/12/02 01:33:30;;;;;;;28.47;15.57;;;;;;;3.91;100.00;100443.13;2103592;28;20236;-65
2023/12/02 01:34:31;;;;;;;27.30;15.27;;;;;;;3.74;100.00;100411.78;2094122;28;20216;-65
2023/12/02 01:35:31;;;;;;;26.37;14.37;;;;;;;4.31;100.00;100503.84;2089357;28;20197;-65
2023/12/02 01:36:32;;;;;;;26.23;15.63;;;;;;;4.28;100.00;100496.41;2092621;28;20188;-65
2023/12/02 01:37:32;;;;;;;24.60;15.03;;;;;;;3.97;100.00;100452.53;2095880;28;20431;-65
2023/12/02 01:38:33;;;;;;;24.70;14.77;;;;;;;4.28;100.00;100512.06;2089307;28;20679;-65
2023/12/02 01:39:33;;;;;;;25.10;14.27;;;;;;;3.89;100.00;100449.00;2089583;28;20547;-65
2023/12/02 01:40:34;;;;;;;24.87;15.07;;;;;;;4.41;100.00;100527.72;2095704;28;20264;-65
2023/12/02 01:41:34;;;;;;;24.37;15.80;;;;;;;3.62;100.00;100403.19;2097446;28;20587;-65
2023/12/02 01:42:35;;;;;;;21.20;13.53;;;;;;;4.46;100.00;100526.56;2092319;28;20666;-65
2023/12/02 01:43:37;;;;;;;22.67;12.90;;;;;;;4.44;100.00;100512.44;2089159;28;20294;-65
2023/12/02 01:44:38;;;;;;;18.33;10.75;;;;;;;3.45;100.00;100373.81;2088850;28;20225;-65
2023/12/02 01:45:38;;;;;;;23.90;13.33;;;;;;;4.37;100.00;100515.19;2089432;28;20242;-65
2023/12/02 01:46:39;;;;;;;29.57;13.93;;;;;;;4.44;100.00;100515.19;2089291;28;20593;-65
2023/12/02 01:47:41;;;;;;;22.43;12.93;;;;;;;3.89;100.00;100413.38;2088698;28;20703;-65
2023/12/02 01:48:42;;;;;;;21.52;11.27;;;;;;;4.02;100.00;100447.44;2088678;28;20229;-65
2023/12/02 01:49:44;;;;;;;21.35;13.20;;;;;;;4.37;100.00;100506.97;2089396;28;20221;-65
2023/12/02 01:50:46;;;;;;;21.67;13.88;;;;;;;4.14;100.00;100476.41;2089029;28;20689;-65
2023/12/02 01:51:46;;;;;;;21.33;12.95;;;;;;;3.86;100.00;100441.53;2093185;28;20625;-65
2023/12/02 01:52:47;;;;;;;24.37;13.97;;;;;;;4.42;100.00;100514.81;2094868;28;20305;-65
2023/12/02 01:53:47;;;;;;;27.77;14.20;;;;;;;4.48;100.00;100521.47;2089178;28;20246;-65
2023/12/02 01:54:48;;;;;;;24.13;13.87;;;;;;;4.46;100.00;100521.84;2088651;28;20210;-65
2023/12/02 01:55:48;;;;;;;18.17;11.07;;;;;;;3.78;100.00;100420.81;2089414;28;20288;-65
2023/12/02 01:56:49;;;;;;;24.93;13.90;;;;;;;4.32;100.00;100521.09;2096712;28;20285;-65
2023/12/02 01:57:50;;;;;;;25.33;13.07;;;;;;;4.35;100.00;100507.34;2090473;28;20187;-65
2023/12/02 01:58:50;;;;;;;24.10;13.93;;;;;;;4.50;100.00;100532.81;2089423;28;20192;-65
2023/12/02 01:59:55;;;;;;;19.90;11.77;;;;;;;3.98;100.00;100443.91;2089040;28;20241;-65
2023/12/02 02:00:55;;;;;;;24.50;13.82;;;;;;;4.29;100.00;100472.47;2091379;28;20260;-65
2023/12/02 02:01:56;;;;;;;21.70;13.17;;;;;;;3.77;100.00;100396.53;2095819;28;20171;-65
2023/12/02 02:02:56;;;;;;;19.85;13.10;;;;;;;4.21;100.00;100466.22;2089221;28;20184;-65
2023/12/02 02:03:59;;;;;;;20.13;12.60;;;;;;;4.38;100.00;100492.88;2089274;28;20262;-65
2023/12/02 02:04:59;;;;;;;19.17;10.60;;;;;;;4.34;100.00;100491.28;2103527;28;20183;-65
2023/12/02 02:06:00;;;;;;;25.13;12.90;;;;;;;4.13;100.00;100478.38;2093545;28;20188;-65
2023/12/02 02:07:01;;;;;;;23.73;13.43;;;;;;;3.88;100.00;100433.72;2099014;28;20182;-65
2023/12/02 02:08:01;;;;;;;21.77;13.47;;;;;;;3.97;100.00;100445.09;2098188;28;20482;-65
2023/12/02 02:09:02;;;;;;;22.90;13.40;;;;;;;3.94;100.00;100440.38;2093852;28;20212;-65
2023/12/02 02:10:03;;;;;;;21.03;12.70;;;;;;;4.39;100.00;100513.63;2103283;28;20539;-65
2023/12/02 02:11:04;;;;;;;22.67;14.10;;;;;;;4.38;100.00;100525.78;2089055;28;20237;-65
2023/12/02 02:12:05;;;;;;;25.88;13.15;;;;;;;4.41;100.00;100525.00;2088730;28;20174;-65
2023/12/02 02:13:05;;;;;;;25.60;13.83;;;;;;;4.03;100.00;100457.22;2089237;28;20185;-65
2023/12/02 02:14:06;;;;;;;21.03;12.07;;;;;;;3.59;100.00;100398.50;2094001;28;20714;-65
2023/12/02 02:15:07;;;;;;;25.10;13.03;;;;;;;4.09;100.00;100498.72;2092842;28;20193;-65
2023/12/02 02:16:07;;;;;;;23.25;14.57;;;;;;;3.97;100.00;100469.78;2089075;28;20219;-65
2023/12/02 02:17:08;;;;;;;23.03;13.17;;;;;;;3.50;100.00;100395.34;2090994;28;20185;-65
2023/12/02 02:18:09;;;;;;;21.27;12.50;;;;;;;4.17;100.00;100489.34;2096369;28;20641;-65
2023/12/02 02:19:10;;;;;;;16.60;10.03;;;;;;;3.58;100.00;100391.41;2089216;28;20183;-65
2023/12/02 02:20:11;;;;;;;22.25;12.90;;;;;;;4.12;100.00;100465.06;2096474;28;20189;-65
2023/12/02 02:21:21;;;;;;;24.47;12.77;;;;;;;4.03;100.00;100464.66;2090222;28;20210;-65
2023/12/02 02:22:22;;;;;;;22.95;12.70;;;;;;;4.24;100.00;100483.84;2089067;28;20177;-65
2023/12/02 02:23:23;;;;;;;22.70;12.00;;;;;;;3.94;100.00;100420.41;2089017;28;20674;-65
2023/12/02 02:24:24;;;;;;;23.08;14.90;;;;;;;4.09;100.00;100463.88;2088522;28;20188;-65
2023/12/02 02:25:25;;;;;;;19.53;13.03;;;;;;;4.18;100.00;100467.03;2092337;28;20188;-65
2023/12/02 02:26:25;;;;;;;23.30;14.90;;;;;;;4.30;100.00;100487.75;2094637;28;20654;-65
2023/12/02 02:27:26;;;;;;;23.50;12.20;;;;;;;4.23;100.00;100474.84;2088791;28;20225;-65
2023/12/02 02:28:27;;;;;;;21.27;12.63;;;;;;;4.22;100.00;100477.97;2089217;28;20184;-65
2023/12/02 02:29:28;;;;;;;18.10;11.30;;;;;;;4.06;100.00;100466.63;2088983;28;20576;-65
2023/12/02 02:30:28;;;;;;;21.33;12.77;;;;;;;3.93;100.00;100457.22;2088916;28;20242;-65
2023/12/02 02:31:29;;;;;;;26.50;12.70;;;;;;;3.60;100.00;100397.31;2090313;28;20191;-65
2023/12/02 02:32:29;;;;;;;20.00;12.87;;;;;;;4.04;100.00;100445.09;2097388;28;20179;-65
2023/12/02 02:33:32;;;;;;;21.53;13.17;;;;;;;4.19;100.00;100478.75;2097047;28;20198;-65
2023/12/02 02:34:32;;;;;;;21.08;11.52;;;;;;;3.88;100.00;100439.22;2093683;28;20197;-65
2023/12/02 02:35:33;;;;;;;21.13;11.97;;;;;;;4.10;100.00;100481.13;2090732;28;20189;-65
2023/12/02 02:36:33;;;;;;;22.13;12.43;;;;;;;4.17;100.00;100489.34;2097083;28;20254;-65
2023/12/02 02:37:34;;;;;;;18.57;12.10;;;;;;;3.82;100.00;100434.50;2097404;28;20180;-65
2023/12/02 02:38:34;;;;;;;22.53;12.33;;;;;;;3.29;100.00;100356.97;2097127;28;20195;-65
2023/12/02 02:39:35;;;;;;;22.83;12.33;;;;;;;3.25;100.00;100356.19;2090822;28;20685;-65
2023/12/02 02:40:36;;;;;;;22.07;11.77;;;;;;;4.09;100.00;100498.72;2089719;28;20188;-65
2023/12/02 02:41:36;;;;;;;23.97;13.37;;;;;;;4.04;100.00;100483.47;2092586;28;20226;-65
2023/12/02 02:42:37;;;;;;;20.93;12.10;;;;;;;4.10;100.00;100481.13;2099617;28;20207;-65
2023/12/02 02:43:37;;;;;;;20.50;12.40;;;;;;;4.05;100.00;100484.25;2102915;28;20220;-65
2023/12/02 02:44:38;;;;;;;21.50;11.77;;;;;;;3.02;100.00;100342.06;2095787;28;20184;-65
2023/12/02 02:45:38;;;;;;;21.53;12.07;;;;;;;3.72;100.00;100449.78;2096858;28;20176;-65
2023/12/02 02:46:39;;;;;;;18.03;11.90;;;;;;;3.78;100.00;100453.69;2088877;28;20203;-65
2023/12/02 02:47:39;;;;;;;23.80;14.67;;;;;;;3.98;100.00;100484.25;2094507;28;20692;-65
2023/12/02 02:48:40;;;;;;;20.23;12.60;;;;;;;3.70;100.00;100434.91;2097135;28;20191;-65
2023/12/02 02:49:40;;;;;;;22.83;13.07;;;;;;;4.04;100.00;100483.47;2093940;28;20189;-65
2023/12/02 02:50:41;;;;;;;20.10;12.73;;;;;;;3.69;100.00;100419.63;2088447;28;20181;-65
2023/12/02 02:51:42;;;;;;;19.43;12.00;;;;;;;3.91;100.00;100448.63;2089375;28;20211;-65
2023/12/02 02:52:43;;;;;;;19.80;11.45;;;;;;;3.36;100.00;100384.38;2097516;28;20172;-65
2023/12/02 02:53:43;;;;;;;21.37;12.10;;;;;;;3.88;100.00;100479.53;2089411;28;20188;-65
2023/12/02 02:54:44;;;;;;;24.47;14.97;;;;;;;4.00;100.00;100490.91;2088177;28;20470;-65
2023/12/02 02:55:45;;;;;;;22.33;13.60;;;;;;;3.84;100.00;100467.81;2088932;28;20179;-65
2023/12/02 02:56:46;;;;;;;24.20;12.07;;;;;;;3.91;100.00;100468.56;2088893;28;20255;-65
2023/12/02 02:57:46;;;;;;;21.73;14.07;;;;;;;3.11;100.00;100342.47;2090773;28;20198;-65
2023/12/02 02:58:47;;;;;;;22.40;11.97;;;;;;;3.65;100.00;100427.84;2096504;28;20168;-65
2023/12/02 02:59:47;;;;;;;23.10;14.73;;;;;;;3.57;100.00;100415.31;2088753;28;20579;-65
2023/12/02 03:00:48;;;;;;;20.30;11.80;;;;;;;4.05;100.00;100481.53;2088700;28;20176;-65
2023/12/02 03:01:48;;;;;;;22.60;12.80;;;;;;;3.89;100.00;100449.00;2095627;28;20234;-65
2023/12/02 03:02:49;;;;;;;20.70;11.87;;;;;;;4.07;100.00;100482.69;2097127;28;20187;-65
2023/12/02 03:03:49;;;;;;;26.57;11.80;;;;;;;4.12;100.00;100487.78;2096962;28;20191;-65
2023/12/02 03:04:50;;;;;;;18.30;11.33;;;;;;;4.06;100.00;100466.63;2096712;28;20229;-65
2023/12/02 03:05:50;;;;;;;18.23;11.33;;;;;;;3.47;100.00;100394.16;2097582;28;20714;-65
2023/12/02 03:06:51;;;;;;;23.83;11.80;;;;;;;3.88;100.00;100458.41;2096252;28;20653;-65
2023/12/02 03:07:51;;;;;;;18.60;11.47;;;;;;;4.09;100.00;100485.81;2088886;28;20183;-65
2023/12/02 03:08:52;;;;;;;22.87;12.40;;;;;;;3.63;100.00;100419.22;2095972;28;20264;-65
2023/12/02 03:09:52;;;;;;;19.47;11.90;;;;;;;3.74;100.00;100432.94;2096767;28;20187;-65
2023/12/02 03:10:53;;;;;;;17.20;11.00;;;;;;;3.65;100.00;100410.63;2102161;28;20186;-65
2023/12/02 03:11:53;;;;;;;19.20;11.63;;;;;;;4.17;100.00;100481.13;2097175;28;20192;-65
2023/12/02 03:12:54;;;;;;;17.07;11.13;;;;;;;4.08;100.00;100486.22;2094344;28;20234;-65
2023/12/02 03:13:54;;;;;;;20.40;11.40;;;;;;;4.13;100.00;100494.03;2102166;28;20286;-65
2023/12/02 03:14:55;;;;;;;18.77;12.07;;;;;;;4.16;100.00;100488.56;2088617;28;20169;-65
2023/12/02 03:15:55;;;;;;;19.80;10.67;;;;;;;4.18;100.00;100488.16;2105492;28;20718;-65
2023/12/02 03:16:56;;;;;;;19.73;11.57;;;;;;;4.21;100.00;100492.88;2090844;28;20193;-65
2023/12/02 03:17:56;;;;;;;21.53;11.87;;;;;;;4.16;100.00;100485.03;2094725;28;20262;-65
2023/12/02 03:18:57;;;;;;;21.73;11.83;;;;;;;3.50;100.00;100373.44;2092563;28;20190;-65
2023/12/02 03:19:57;;;;;;;22.70;13.73;;;;;;;3.90;100.00;100438.81;2094453;28;20192;-65
2023/12/02 03:20:58;;;;;;;22.63;12.83;;;;;;;4.13;100.00;100463.88;2094537;28;20187;-65
2023/12/02 03:21:58;;;;;;;21.93;12.07;;;;;;;3.86;100.00;100405.16;2089268;28;20181;-65
2023/12/02 03:22:59;;;;;;;20.43;11.73;;;;;;;4.31;100.00;100462.69;2096761;28;20279;-65
2023/12/02 03:23:59;;;;;;;22.20;11.67;;;;;;;4.15;100.00;100442.34;2096848;28;20176;-65
2023/12/02 03:25:00;;;;;;;22.43;11.73;;;;;;;4.25;100.00;100471.72;2096449;28;20179;-65
2023/12/02 03:26:01;;;;;;;26.47;11.40;;;;;;;4.06;100.00;100461.91;2096917;28;20191;-65
2023/12/02 03:27:02;;;;;;;20.00;11.93;;;;;;;4.33;100.00;100493.25;2096752;28;20197;-65
2023/12/02 03:28:02;;;;;;;18.58;11.73;;;;;;;4.34;100.00;100485.81;2096954;28;20292;-65
2023/12/02 03:29:06;;;;;;;21.23;11.93;;;;;;;4.13;100.00;100447.41;2096967;28;20178;-65
2023/12/02 03:30:07;;;;;;;19.33;11.60;;;;;;;4.19;100.00;100465.84;2096941;28;20240;-65
2023/12/02 03:31:09;;;;;;;18.05;10.50;;;;;;;4.20;100.00;100478.38;2096777;28;20240;-65
2023/12/02 03:32:09;;;;;;;20.58;12.27;;;;;;;3.97;100.00;100447.84;2096646;28;20203;-65
2023/12/02 03:33:10;;;;;;;22.50;11.60;;;;;;;4.11;100.00;100464.25;2096245;28;20192;-65
2023/12/02 03:34:10;;;;;;;17.63;10.87;;;;;;;4.22;100.00;100472.50;2093381;28;20214;-65
2023/12/02 03:35:10;;;;;;;18.57;11.60;;;;;;;3.88;100.00;100411.81;2096908;28;20193;-65
2023/12/02 03:36:11;;;;;;;24.13;13.03;;;;;;;4.22;100.00;100442.31;2094193;28;20200;-65
2023/12/02 03:37:12;;;;;;;24.00;12.67;;;;;;;3.88;100.00;100386.34;2088195;28;20175;-65
2023/12/02 03:38:12;;;;;;;27.90;12.63;;;;;;;4.52;100.00;100470.88;2091284;28;20183;-65
2023/12/02 03:39:13;;;;;;;19.53;11.70;;;;;;;4.02;100.00;100378.91;2088881;28;20630;-65
2023/12/02 03:40:13;;;;;;;28.23;11.40;;;;;;;4.46;100.00;100449.75;2099850;28;20179;-65
2023/12/02 03:41:14;;;;;;;23.27;12.03;;;;;;;3.87;100.00;100404.75;2098158;28;20207;-65
2023/12/02 03:42:14;;;;;;;18.27;10.87;;;;;;;3.83;100.00;100381.25;2097983;28;20608;-65
2023/12/02 03:43:15;;;;;;;19.97;11.47;;;;;;;4.51;100.00;100479.53;2098359;28;20196;-65
2023/12/02 03:44:15;;;;;;;19.63;11.57;;;;;;;4.53;100.00;100472.47;2090096;28;20180;-65
2023/12/02 03:45:16;;;;;;;22.50;11.97;;;;;;;4.39;100.00;100461.50;2096911;28;20180;-65
2023/12/02 03:46:16;;;;;;;19.57;11.87;;;;;;;4.48;100.00;100464.63;2097127;28;20210;-65
2023/12/02 03:47:17;;;;;;;23.40;12.77;;;;;;;4.27;100.00;100425.47;2096784;28;20195;-65
2023/12/02 03:48:18;;;;;;;19.87;11.47;;;;;;;4.57;100.00;100456.75;2096840;28;20258;-65
2023/12/02 03:49:18;;;;;;;23.10;12.07;;;;;;;4.30;100.00;100408.22;2096082;28;20684;-65
2023/12/02 03:50:18;;;;;;;23.27;11.80;;;;;;;4.46;100.00;100457.97;2092197;28;20231;-65
2023/12/02 03:51:19;;;;;;;20.30;11.10;;;;;;;4.53;100.00;100471.66;2090919;28;20202;-65
2023/12/02 03:52:19;;;;;;;21.10;11.90;;;;;;;4.60;100.00;100458.72;2096066;28;20204;-65
2023/12/02 03:53:20;;;;;;;21.03;11.67;;;;;;;4.47;100.00;100456.78;2096721;28;20237;-65
2023/12/02 03:54:21;;;;;;;23.33;11.90;;;;;;;4.45;100.00;100461.88;2096452;28;20583;-65
2023/12/02 03:55:21;;;;;;;21.43;12.20;;;;;;;3.98;100.00;100383.59;2097383;28;20184;-65
2023/12/02 03:56:22;;;;;;;23.37;13.03;;;;;;;4.56;100.00;100446.97;2096341;28;20187;-65
2023/12/02 03:57:23;;;;;;;19.45;11.85;;;;;;;4.67;100.00;100452.44;2094519;28;20183;-65
2023/12/02 03:58:23;;;;;;;23.47;12.17;;;;;;;4.58;100.00;100430.91;2098417;28;20261;-65
2023/12/02 03:59:24;;;;;;;25.33;11.80;;;;;;;4.78;100.00;100462.19;2096077;28;20179;-65
2023/12/02 04:00:27;;;;;;;23.25;11.75;;;;;;;4.75;100.00;100451.22;2091036;28;20177;-65
2023/12/02 04:01:27;;;;;;;25.42;12.88;;;;;;;4.85;100.00;100456.69;2097989;28;20234;-65
2023/12/02 04:02:27;;;;;;;22.67;11.30;;;;;;;4.86;100.00;100463.75;2090160;28;20188;-65
2023/12/02 04:03:28;;;;;;;21.70;11.33;;;;;;;3.63;100.00;100287.72;2090058;28;20204;-65
2023/12/02 04:04:28;;;;;;;19.27;11.23;;;;;;;4.60;100.00;100442.25;2095236;28;20176;-65
2023/12/02 04:05:29;;;;;;;24.43;12.30;;;;;;;4.40;100.00;100419.16;2098518;28;20715;-65
2023/12/02 04:06:29;;;;;;;26.47;12.47;;;;;;;4.03;100.00;100374.19;2094785;28;20208;-65
2023/12/02 04:07:30;;;;;;;21.50;11.17;;;;;;;4.75;100.00;100464.94;2091871;28;20231;-65
2023/12/02 04:08:31;;;;;;;19.93;11.00;;;;;;;4.78;100.00;100451.19;2098182;28;20183;-65
2023/12/02 04:09:32;;;;;;;21.25;12.18;;;;;;;4.36;100.00;100384.72;2098547;28;20540;-65
2023/12/02 04:10:32;;;;;;;17.63;10.50;;;;;;;3.99;100.00;100357.75;2090516;28;20245;-65
2023/12/02 04:11:33;;;;;;;18.70;10.60;;;;;;;4.56;100.00;100435.22;2090091;28;20180;-65
2023/12/02 04:12:34;;;;;;;16.83;10.57;;;;;;;4.11;100.00;100376.50;2089972;28;20199;-65
2023/12/02 04:13:34;;;;;;;19.17;11.20;;;;;;;4.72;100.00;100452.03;2093006;28;20180;-65
2023/12/02 04:14:35;;;;;;;18.77;11.53;;;;;;;4.70;100.00;100437.91;2094654;28;20180;-65
2023/12/02 04:15:35;;;;;;;18.67;10.97;;;;;;;4.75;100.00;100437.50;2091276;28;20180;-65
2023/12/02 04:16:40;;;;;;;18.90;10.90;;;;;;;4.22;100.00;100371.03;2098416;28;20198;-65
2023/12/02 04:17:41;;;;;;;23.83;10.88;;;;;;;4.66;100.00;100443.41;2090463;28;20157;-65
2023/12/02 04:18:41;;;;;;;19.03;11.53;;;;;;;4.64;100.00;100450.47;2097621;28;20263;-65
2023/12/02 04:19:42;;;;;;;17.07;10.77;;;;;;;4.71;100.00;100466.91;2095593;28;20199;-65
2023/12/02 04:20:42;;;;;;;17.10;10.43;;;;;;;4.30;100.00;100395.28;2092223;28;20246;-65
2023/12/02 04:21:44;;;;;;;19.90;11.77;;;;;;;4.76;100.00;100456.31;2089948;28;20196;-65
2023/12/02 04:22:45;;;;;;;21.30;11.75;;;;;;;4.76;100.00;100463.75;2090150;28;20244;-65
2023/12/02 04:23:45;;;;;;;18.07;11.17;;;;;;;4.79;100.00;100484.94;2089785;28;20185;-65
2023/12/02 04:24:46;;;;;;;18.87;11.13;;;;;;;4.66;100.00;100470.09;2089667;28;20176;-65
2023/12/02 04:25:47;;;;;;;19.93;11.80;;;;;;;4.32;100.00;100394.91;2098408;28;20566;-65
2023/12/02 04:26:47;;;;;;;16.93;11.07;;;;;;;4.77;100.00;100455.13;2091199;28;20180;-65
2023/12/02 04:27:48;;;;;;;17.97;11.37;;;;;;;4.74;100.00;100449.66;2094721;28;20642;-65
2023/12/02 04:28:48;;;;;;;17.30;10.57;;;;;;;4.60;100.00;100441.47;2097745;28;20668;-65
2023/12/02 04:29:49;;;;;;;20.77;11.23;;;;;;;4.64;100.00;100436.75;2098083;28;20184;-65
2023/12/02 04:30:49;;;;;;;17.30;9.93;;;;;;;4.40;100.00;100416.44;2097935;28;20680;-65
2023/12/02 04:31:51;;;;;;;17.27;9.95;;;;;;;4.27;100.00;100400.78;2097970;28;20261;-65
2023/12/02 04:32:52;;;;;;;17.80;10.43;;;;;;;4.11;100.00;100381.22;2098414;28;20176;-65
2023/12/02 04:33:52;;;;;;;17.00;10.50;;;;;;;4.67;100.00;100472.41;2090074;28;20176;-65
2023/12/02 04:34:53;;;;;;;20.97;11.47;;;;;;;4.43;100.00;100423.88;2089015;28;20196;-65
2023/12/02 04:35:54;;;;;;;16.55;10.77;;;;;;;4.21;100.00;100391.41;2089862;28;20181;-65